createdAt,value
2022-09-25T00:02:01.528Z,101284.59
2022-09-25T00:04:29.846Z,101277.53
2022-09-25T00:06:56.701Z,101282.81
2022-09-25T00:09:23.731Z,101284.69
2022-09-25T00:11:50.887Z,101286.47
2022-09-25T00:14:17.723Z,101274.00
2022-09-25T00:16:44.727Z,101279.59
2022-09-25T00:19:38.101Z,101277.88
2022-09-25T00:22:05.074Z,101276.03
2022-09-25T00:24:32.272Z,101274.66
2022-09-25T00:27:00.147Z,101279.84
2022-09-25T00:29:26.843Z,101272.47
2022-09-25T00:31:54.925Z,101273.75
2022-09-25T00:34:21.686Z,101272.78
2022-09-25T00:36:48.404Z,101271.03
2022-09-25T00:39:15.370Z,101266.34
2022-09-25T00:41:42.099Z,101264.56
2022-09-25T00:44:27.526Z,101262.09
2022-09-25T00:46:54.496Z,101264.91
2022-09-25T00:49:24.522Z,101266.00
2022-09-25T00:51:54.619Z,101260.66
2022-09-25T00:54:27.860Z,101265.06
2022-09-25T00:56:55.386Z,101258.81
2022-09-25T00:59:25.034Z,101260.00
2022-09-25T01:01:52.464Z,101253.97
2022-09-25T01:04:20.027Z,101261.94
2022-09-25T01:06:46.853Z,101256.00
2022-09-25T01:09:14.101Z,101260.41
2022-09-25T01:11:40.800Z,101260.50
2022-09-25T01:14:09.369Z,101256.94
2022-09-25T01:16:54.600Z,101260.06
2022-09-25T01:19:24.154Z,101262.03
2022-09-25T01:21:54.651Z,101264.84
2022-09-25T01:24:24.649Z,101267.00
2022-09-25T01:27:10.710Z,101265.06
2022-09-25T01:29:41.397Z,101260.66
2022-09-25T01:32:18.351Z,101257.09
2022-09-25T01:35:03.921Z,101252.78
2022-09-25T01:37:50.566Z,101260.50
2022-09-25T01:40:23.020Z,101260.50
2022-09-25T01:42:54.051Z,101261.25
2022-09-25T01:45:35.138Z,101259.41
2022-09-25T01:48:03.734Z,101259.56
2022-09-25T01:50:43.190Z,101258.78
2022-09-25T01:53:12.977Z,101259.72
2022-09-25T01:55:43.747Z,101252.88
2022-09-25T01:58:24.083Z,101258.03
2022-09-25T02:00:55.521Z,101248.63
2022-09-25T02:03:27.877Z,101253.03
2022-09-25T02:06:01.343Z,101251.38
2022-09-25T02:08:51.201Z,101248.94
2022-09-25T02:11:18.126Z,101245.41
2022-09-25T02:13:52.345Z,101247.00
2022-09-25T02:16:22.326Z,101244.28
2022-09-25T02:19:08.986Z,101242.44
2022-09-25T02:21:58.984Z,101242.19
2022-09-25T02:24:32.279Z,101237.84
2022-09-25T02:26:59.638Z,101244.81
2022-09-25T02:29:26.459Z,101241.41
2022-09-25T02:32:03.624Z,101234.13
2022-09-25T02:34:31.472Z,101239.56
2022-09-25T02:36:58.777Z,101239.47
2022-09-25T02:39:27.443Z,101234.13
2022-09-25T02:42:13.406Z,101237.84
2022-09-25T02:44:43.597Z,101237.25
2022-09-25T02:47:22.750Z,101233.75
2022-09-25T02:49:49.476Z,101234.97
2022-09-25T02:52:24.588Z,101239.28
2022-09-25T02:55:02.522Z,101230.81
2022-09-25T02:57:33.761Z,101229.84
2022-09-25T03:00:03.724Z,101229.34
2022-09-25T03:02:32.962Z,101233.50
2022-09-25T03:05:00.769Z,101234.53
2022-09-25T03:07:27.810Z,101226.22
2022-09-25T03:09:56.104Z,101233.59
2022-09-25T03:12:22.855Z,101229.84
2022-09-25T03:14:49.645Z,101224.69
2022-09-25T03:17:17.691Z,101228.94
2022-09-25T03:19:44.555Z,101223.84
2022-09-25T03:22:12.103Z,101213.16
2022-09-25T03:24:39.048Z,101223.66
2022-09-25T03:27:05.826Z,101218.50
2022-09-25T03:29:32.760Z,101224.44
2022-09-25T03:31:59.718Z,101218.25
2022-09-25T03:34:26.409Z,101224.69
2022-09-25T03:36:53.156Z,101221.75
2022-09-25T03:39:20.175Z,101220.13
2022-09-25T03:41:47.905Z,101221.13
2022-09-25T03:44:15.108Z,101223.00
2022-09-25T03:46:42.326Z,101226.38
2022-09-25T03:49:10.675Z,101220.28
2022-09-25T03:51:38.926Z,101226.72
2022-09-25T03:54:06.036Z,101225.63
2022-09-25T03:56:33.109Z,101221.47
2022-09-25T03:59:00.156Z,101220.78
2022-09-25T04:01:27.840Z,101218.47
2022-09-25T04:03:55.012Z,101221.38
2022-09-25T04:06:24.199Z,101212.03
2022-09-25T04:08:51.877Z,101218.56
2022-09-25T04:11:19.564Z,101213.81
2022-09-25T04:13:46.731Z,101208.66
2022-09-25T04:16:14.595Z,101214.50
2022-09-25T04:18:43.022Z,101211.78
2022-09-25T04:21:11.602Z,101209.06
2022-09-25T04:23:39.127Z,101211.28
2022-09-25T04:26:06.547Z,101211.03
2022-09-25T04:28:33.492Z,101209.41
2022-09-25T04:31:00.740Z,101213.91
2022-09-25T04:33:46.393Z,101218.16
2022-09-25T04:36:14.595Z,101211.53
2022-09-25T04:38:41.323Z,101208.81
2022-09-25T04:41:08.309Z,101206.94
2022-09-25T04:43:35.469Z,101204.25
2022-09-25T04:46:03.206Z,101206.38
2022-09-25T04:48:30.287Z,101200.25
2022-09-25T04:50:58.286Z,101211.72
2022-09-25T04:53:26.655Z,101210.16
2022-09-25T04:55:54.463Z,101207.28
2022-09-25T04:58:21.871Z,101206.44
2022-09-25T05:00:49.295Z,101208.63
2022-09-25T05:03:16.235Z,101204.00
2022-09-25T05:05:43.409Z,101206.38
2022-09-25T05:08:10.171Z,101215.00
2022-09-25T05:10:39.768Z,101209.16
2022-09-25T05:13:09.134Z,101219.59
2022-09-25T05:15:36.274Z,101213.91
2022-09-25T05:18:04.519Z,101219.00
2022-09-25T05:20:32.075Z,101210.38
2022-09-25T05:22:58.994Z,101209.06
2022-09-25T05:25:26.782Z,101207.22
2022-09-25T05:27:55.970Z,101200.09
2022-09-25T05:30:23.275Z,101201.81
2022-09-25T05:32:50.986Z,101209.75
2022-09-25T05:35:19.161Z,101207.41
2022-09-25T05:37:46.070Z,101208.50
2022-09-25T05:40:15.745Z,101207.41
2022-09-25T05:42:44.287Z,101208.97
2022-09-25T05:45:11.963Z,101217.47
2022-09-25T05:47:39.419Z,101210.16
2022-09-25T05:50:07.179Z,101214.75
2022-09-25T05:52:34.170Z,101208.06
2022-09-25T05:55:03.608Z,101204.84
2022-09-25T05:57:31.284Z,101202.22
2022-09-25T05:59:59.086Z,101207.22
2022-09-25T06:02:26.059Z,101204.19
2022-09-25T06:04:53.140Z,101200.44
2022-09-25T06:07:22.147Z,101203.72
2022-09-25T06:09:49.152Z,101202.81
2022-09-25T06:12:16.234Z,101204.94
2022-09-25T06:14:43.221Z,101199.34
2022-09-25T06:17:12.380Z,101198.47
2022-09-25T06:19:39.468Z,101202.22
2022-09-25T06:22:06.362Z,101203.50
2022-09-25T06:24:33.316Z,101209.16
2022-09-25T06:27:00.467Z,101204.50
2022-09-25T06:29:27.309Z,101205.03
2022-09-25T06:31:54.193Z,101209.75
2022-09-25T06:34:21.293Z,101206.31
2022-09-25T06:36:48.172Z,101207.44
2022-09-25T06:39:15.188Z,101208.63
2022-09-25T06:41:42.478Z,101199.06
2022-09-25T06:44:09.473Z,101205.81
2022-09-25T06:46:36.996Z,101207.06
2022-09-25T06:49:04.278Z,101209.66
2022-09-25T06:51:34.507Z,101208.84
2022-09-25T06:54:01.586Z,101208.50
2022-09-25T06:56:28.708Z,101211.13
2022-09-25T06:58:55.772Z,101207.75
2022-09-25T07:01:22.787Z,101214.13
2022-09-25T07:03:49.910Z,101216.81
2022-09-25T07:06:16.723Z,101206.38
2022-09-25T07:08:44.249Z,101209.94
2022-09-25T07:11:15.174Z,101215.44
2022-09-25T07:13:42.742Z,101213.00
2022-09-25T07:16:14.428Z,101212.41
2022-09-25T07:18:41.708Z,101213.94
2022-09-25T07:21:11.532Z,101209.81
2022-09-25T07:23:40.237Z,101220.28
2022-09-25T07:26:09.943Z,101216.88
2022-09-25T07:28:39.326Z,101218.78
2022-09-25T07:31:17.734Z,101217.19
2022-09-25T07:33:47.284Z,101212.66
2022-09-25T07:36:15.720Z,101205.25
2022-09-25T07:38:42.736Z,101216.25
2022-09-25T07:41:12.100Z,101210.06
2022-09-25T07:43:43.979Z,101212.47
2022-09-25T07:46:11.937Z,101211.16
2022-09-25T07:48:39.638Z,101208.63
2022-09-25T07:51:09.190Z,101208.59
2022-09-25T07:53:38.861Z,101214.06
2022-09-25T07:56:07.456Z,101215.00
2022-09-25T07:58:38.773Z,101205.97
2022-09-25T08:01:08.981Z,101216.44
2022-09-25T08:03:36.667Z,101218.44
2022-09-25T08:06:04.306Z,101207.34
2022-09-25T08:08:33.350Z,101209.94
2022-09-25T08:11:04.480Z,101207.63
2022-09-25T08:13:32.769Z,101211.25
2022-09-25T08:16:14.680Z,101210.16
2022-09-25T08:18:46.303Z,101202.66
2022-09-25T08:21:15.953Z,101199.44
2022-09-25T08:23:48.010Z,101189.75
2022-09-25T08:26:16.645Z,101184.44
2022-09-25T08:28:44.318Z,101188.66
2022-09-25T08:31:11.498Z,101173.03
2022-09-25T08:33:40.797Z,101177.09
2022-09-25T08:36:10.040Z,101173.47
2022-09-25T08:38:38.530Z,101172.09
2022-09-25T08:41:11.233Z,101169.72
2022-09-25T08:43:43.957Z,101172.50
2022-09-25T08:46:41.741Z,101174.03
2022-09-25T08:49:12.072Z,101176.72
2022-09-25T08:51:45.761Z,101180.44
2022-09-25T08:54:21.666Z,101167.69
2022-09-25T08:57:01.775Z,101170.31
2022-09-25T08:59:32.535Z,101166.75
2022-09-25T09:02:03.367Z,101180.19
2022-09-25T09:04:33.531Z,101181.25
2022-09-25T09:07:26.408Z,101172.66
2022-09-25T09:10:03.169Z,101170.88
2022-09-25T09:12:40.039Z,101170.56
2022-09-25T09:15:29.969Z,101163.25
2022-09-25T09:17:58.965Z,101167.13
2022-09-25T09:20:43.390Z,101159.97
2022-09-25T09:23:16.099Z,101162.94
2022-09-25T09:25:54.915Z,101160.25
2022-09-25T09:28:24.770Z,101160.53
2022-09-25T09:31:21.101Z,101160.63
2022-09-25T09:33:56.071Z,101158.81
2022-09-25T09:36:43.051Z,101153.56
2022-09-25T09:39:16.201Z,101151.09
2022-09-25T09:42:01.868Z,101153.28
2022-09-25T09:44:50.394Z,101140.75
2022-09-25T09:47:27.951Z,101139.06
2022-09-25T09:49:58.561Z,101136.00
2022-09-25T09:52:30.848Z,101128.31
2022-09-25T09:55:16.457Z,101124.78
2022-09-25T09:57:45.339Z,101117.72
2022-09-25T10:00:20.169Z,101121.69
2022-09-25T10:02:49.824Z,101106.78
2022-09-25T10:05:35.641Z,101105.84
2022-09-25T10:08:02.478Z,101101.25
2022-09-25T10:10:35.492Z,101085.97
2022-09-25T10:13:06.778Z,101099.03
2022-09-25T10:15:36.267Z,101089.97
2022-09-25T10:18:03.639Z,101085.53
2022-09-25T10:20:41.957Z,101085.34
2022-09-25T10:23:28.317Z,101085.59
2022-09-25T10:25:56.275Z,101090.34
2022-09-25T10:28:23.792Z,101089.91
2022-09-25T10:30:52.350Z,101094.00
2022-09-25T10:33:23.362Z,101097.72
2022-09-25T10:35:53.491Z,101093.91
2022-09-25T10:38:29.828Z,101090.78
2022-09-25T10:41:17.453Z,101081.81
2022-09-25T10:43:52.294Z,101085.75
2022-09-25T10:46:46.375Z,101087.19
2022-09-25T10:49:41.884Z,101078.44
2022-09-25T10:52:10.020Z,101078.78
2022-09-25T10:54:43.717Z,101079.16
2022-09-25T10:57:34.501Z,101066.78
2022-09-25T11:00:04.079Z,101059.69
2022-09-25T11:02:36.571Z,101062.63
2022-09-25T11:05:04.699Z,101064.44
2022-09-25T11:07:31.689Z,101056.19
2022-09-25T11:10:00.351Z,101058.19
2022-09-25T11:12:29.971Z,101049.69
2022-09-25T11:14:59.114Z,101055.25
2022-09-25T11:17:31.618Z,101053.75
2022-09-25T11:20:16.250Z,101052.50
2022-09-25T11:22:45.801Z,101045.00
2022-09-25T11:25:17.633Z,101054.34
2022-09-25T11:27:44.611Z,101048.16
2022-09-25T11:30:12.496Z,101046.28
2022-09-25T11:32:59.825Z,101036.75
2022-09-25T11:35:42.251Z,101039.38
2022-09-25T11:38:12.283Z,101041.25
2022-09-25T11:41:12.948Z,101046.56
2022-09-25T11:43:39.741Z,101041.94
2022-09-25T11:46:19.087Z,101036.50
2022-09-25T11:48:52.503Z,101033.41
2022-09-25T11:51:19.464Z,101029.53
2022-09-25T11:54:03.294Z,101029.56
2022-09-25T11:56:50.179Z,101026.97
2022-09-25T11:59:26.042Z,101023.88
2022-09-25T12:01:56.405Z,101025.56
2022-09-25T12:04:27.721Z,101023.41
2022-09-25T12:07:00.563Z,101023.91
2022-09-25T12:09:36.606Z,101031.16
2022-09-25T12:12:17.265Z,101023.16
2022-09-25T12:14:53.212Z,101023.59
2022-09-25T12:17:28.070Z,101019.19
2022-09-25T12:20:13.341Z,101015.41
2022-09-25T12:23:03.287Z,101006.78
2022-09-25T12:25:50.137Z,101007.31
2022-09-25T12:28:20.324Z,101002.59
2022-09-25T12:30:47.379Z,101000.97
2022-09-25T12:33:32.710Z,101004.72
2022-09-25T12:35:59.676Z,100998.31
2022-09-25T12:38:44.808Z,100993.16
2022-09-25T12:41:18.067Z,100992.59
2022-09-25T12:43:47.943Z,100991.06
2022-09-25T12:46:33.789Z,100999.72
2022-09-25T12:49:00.578Z,100986.22
2022-09-25T12:51:41.632Z,100986.91
2022-09-25T12:54:24.141Z,100991.13
2022-09-25T12:56:58.229Z,100985.84
2022-09-25T12:59:36.335Z,100982.91
2022-09-25T13:02:12.184Z,100983.78
2022-09-25T13:04:57.567Z,100979.78
2022-09-25T13:07:24.953Z,100976.06
2022-09-25T13:09:51.725Z,100972.13
2022-09-25T13:12:21.917Z,100973.97
2022-09-25T13:14:58.143Z,100971.22
2022-09-25T13:17:24.991Z,100976.94
2022-09-25T13:19:51.976Z,100971.81
2022-09-25T13:22:25.075Z,100971.22
2022-09-25T13:25:03.925Z,100973.19
2022-09-25T13:27:38.802Z,100966.81
2022-09-25T13:30:06.900Z,100969.41
2022-09-25T13:32:38.339Z,100968.25
2022-09-25T13:35:07.178Z,100961.16
2022-09-25T13:37:35.955Z,100957.50
2022-09-25T13:40:28.371Z,100965.66
2022-09-25T13:43:15.070Z,100956.28
2022-09-25T13:45:42.237Z,100956.13
2022-09-25T13:48:15.665Z,100949.72
2022-09-25T13:50:46.420Z,100947.06
2022-09-25T13:53:25.054Z,100948.50
2022-09-25T13:55:56.044Z,100937.44
2022-09-25T13:58:23.615Z,100927.91
2022-09-25T14:00:58.005Z,100937.75
2022-09-25T14:03:42.051Z,100935.00
2022-09-25T14:06:18.132Z,100929.91
2022-09-25T14:08:46.771Z,100928.16
2022-09-25T14:11:16.037Z,100930.22
2022-09-25T14:13:47.250Z,100932.47
2022-09-25T14:16:26.330Z,100928.09
2022-09-25T14:18:55.207Z,100920.69
2022-09-25T14:21:25.070Z,100932.22
2022-09-25T14:23:53.885Z,100923.72
2022-09-25T14:26:26.016Z,100927.44
2022-09-25T14:28:55.236Z,100919.88
2022-09-25T14:31:38.103Z,100918.63
2022-09-25T14:34:13.264Z,100908.88
2022-09-25T14:37:04.283Z,100905.31
2022-09-25T14:39:48.160Z,100902.84
2022-09-25T14:42:17.610Z,100905.38
2022-09-25T14:45:03.082Z,100912.66
2022-09-25T14:47:37.198Z,100901.16
2022-09-25T14:50:06.501Z,100902.16
2022-09-25T14:52:36.631Z,100904.81
2022-09-25T14:55:04.451Z,100904.25
2022-09-25T14:57:35.338Z,100902.00
2022-09-25T15:00:05.458Z,100895.41
2022-09-25T15:02:45.109Z,100897.09
2022-09-25T15:05:20.126Z,100895.84
2022-09-25T15:07:48.681Z,100898.66
2022-09-25T15:10:28.142Z,100900.59
2022-09-25T15:12:56.050Z,100892.06
2022-09-25T15:15:24.455Z,100899.03
2022-09-25T15:17:58.384Z,100902.38
2022-09-25T15:20:29.060Z,100904.03
2022-09-25T15:22:59.162Z,100894.94
2022-09-25T15:25:29.887Z,100897.19
2022-09-25T15:28:00.162Z,100894.94
2022-09-25T15:30:29.622Z,100887.94
2022-09-25T15:33:00.887Z,100893.09
2022-09-25T15:35:30.570Z,100890.44
2022-09-25T15:38:14.645Z,100891.72
2022-09-25T15:40:42.654Z,100891.28
2022-09-25T15:43:16.749Z,100888.06
2022-09-25T15:45:45.443Z,100890.72
2022-09-25T15:48:14.105Z,100885.97
2022-09-25T15:50:45.346Z,100882.03
2022-09-25T15:53:26.167Z,100876.97
2022-09-25T15:56:12.545Z,100877.53
2022-09-25T15:58:45.682Z,100874.69
2022-09-25T16:01:33.548Z,100875.78
2022-09-25T16:04:20.408Z,100872.31
2022-09-25T16:06:50.830Z,100867.09
2022-09-25T16:09:23.247Z,100866.75
2022-09-25T16:11:51.554Z,100865.34
2022-09-25T16:14:23.019Z,100862.25
2022-09-25T16:16:51.229Z,100860.28
2022-09-25T16:19:26.800Z,100865.13
2022-09-25T16:21:54.354Z,100865.31
2022-09-25T16:24:26.415Z,100866.72
2022-09-25T16:26:55.791Z,100864.88
2022-09-25T16:29:26.192Z,100859.16
2022-09-25T16:31:54.960Z,100864.25
2022-09-25T16:34:26.865Z,100862.25
2022-09-25T16:36:56.525Z,100868.22
2022-09-25T16:39:32.295Z,100859.34
2022-09-25T16:42:00.492Z,100859.84
2022-09-25T16:44:31.557Z,100862.91
2022-09-25T16:47:01.900Z,100866.13
2022-09-25T16:49:29.490Z,100872.06
2022-09-25T16:51:56.536Z,100867.78
2022-09-25T16:54:31.111Z,100869.13
2022-09-25T16:56:59.801Z,100875.19
2022-09-25T16:59:28.371Z,100868.81
2022-09-25T17:01:58.285Z,100874.97
2022-09-25T17:04:28.593Z,100875.47
2022-09-25T17:06:57.747Z,100868.84
2022-09-25T17:09:27.223Z,100868.84
2022-09-25T17:12:08.055Z,100871.13
2022-09-25T17:14:35.352Z,100868.16
2022-09-25T17:17:02.827Z,100866.47
2022-09-25T17:19:29.724Z,100863.22
2022-09-25T17:21:57.867Z,100865.25
2022-09-25T17:24:26.841Z,100865.03
2022-09-25T17:26:54.323Z,100858.75
2022-09-25T17:29:21.703Z,100860.44
2022-09-25T17:31:49.052Z,100850.00
2022-09-25T17:34:16.179Z,100845.53
2022-09-25T17:36:43.198Z,100846.72
2022-09-25T17:39:10.448Z,100849.41
2022-09-25T17:41:38.292Z,100853.94
2022-09-25T17:44:05.769Z,100856.09
2022-09-25T17:46:36.336Z,100854.53
2022-09-25T17:49:04.684Z,100848.59
2022-09-25T17:51:32.596Z,100853.16
2022-09-25T17:54:02.359Z,100853.28
2022-09-25T17:56:34.292Z,100849.56
2022-09-25T17:59:02.493Z,100844.63
2022-09-25T18:01:34.232Z,100849.63
2022-09-25T18:04:21.028Z,100840.03
2022-09-25T18:06:49.303Z,100850.63
2022-09-25T18:09:17.847Z,100839.81
2022-09-25T18:11:45.426Z,100843.91
2022-09-25T18:14:12.949Z,100848.41
2022-09-25T18:16:44.132Z,100847.44
2022-09-25T18:19:34.778Z,100851.53
2022-09-25T18:22:17.856Z,100850.56
2022-09-25T18:24:46.076Z,100853.94
2022-09-25T18:27:14.652Z,100855.03
2022-09-25T18:29:42.086Z,100859.34
2022-09-25T18:32:09.639Z,100855.25
2022-09-25T18:34:37.598Z,100851.16
2022-09-25T18:37:04.849Z,100852.72
2022-09-25T18:39:32.837Z,100849.97
2022-09-25T18:42:00.864Z,100849.09
2022-09-25T18:44:30.000Z,100845.34
2022-09-25T18:46:58.736Z,100847.28
2022-09-25T18:49:26.843Z,100848.47
2022-09-25T18:51:53.948Z,100843.13
2022-09-25T18:54:21.382Z,100842.09
2022-09-25T18:56:48.929Z,100849.28
2022-09-25T18:59:16.308Z,100847.84
2022-09-25T19:01:44.498Z,100846.88
2022-09-25T19:04:16.126Z,100844.06
2022-09-25T19:06:43.733Z,100836.03
2022-09-25T19:09:16.429Z,100828.22
2022-09-25T19:11:46.361Z,100831.03
2022-09-25T19:14:15.361Z,100835.94
2022-09-25T19:16:44.342Z,100843.13
2022-09-25T19:19:12.697Z,100836.38
2022-09-25T19:21:46.064Z,100842.50
2022-09-25T19:24:15.793Z,100840.38
2022-09-25T19:26:44.871Z,100839.19
2022-09-25T19:29:12.767Z,100838.50
2022-09-25T19:31:41.284Z,100841.22
2022-09-25T19:34:10.222Z,100836.13
2022-09-25T19:36:37.912Z,100830.34
2022-09-25T19:39:05.054Z,100828.22
2022-09-25T19:41:34.410Z,100833.88
2022-09-25T19:44:06.876Z,100830.19
2022-09-25T19:46:40.290Z,100843.16
2022-09-25T19:49:07.520Z,100842.59
2022-09-25T19:51:34.399Z,100835.84
2022-09-25T19:54:01.479Z,100837.44
2022-09-25T19:56:28.223Z,100830.63
2022-09-25T19:58:55.545Z,100832.34
2022-09-25T20:01:26.828Z,100831.88
2022-09-25T20:03:57.052Z,100829.47
2022-09-25T20:06:25.348Z,100832.00
2022-09-25T20:09:01.022Z,100832.72
2022-09-25T20:11:28.561Z,100832.00
2022-09-25T20:13:55.548Z,100821.31
2022-09-25T20:16:25.927Z,100821.78
2022-09-25T20:18:55.699Z,100825.34
2022-09-25T20:21:22.801Z,100823.56
2022-09-25T20:23:51.164Z,100823.44
2022-09-25T20:26:19.052Z,100819.63
2022-09-25T20:28:46.413Z,100815.41
2022-09-25T20:31:14.589Z,100819.50
2022-09-25T20:33:42.449Z,100817.94
2022-09-25T20:36:11.514Z,100815.28
2022-09-25T20:38:38.544Z,100821.53
2022-09-25T20:41:11.192Z,100805.94
2022-09-25T20:43:38.659Z,100808.47
2022-09-25T20:46:07.049Z,100818.28
2022-09-25T20:48:38.095Z,100814.91
2022-09-25T20:51:05.907Z,100815.63
2022-09-25T20:53:33.209Z,100808.56
2022-09-25T20:56:03.887Z,100803.59
2022-09-25T20:58:31.204Z,100799.19
2022-09-25T21:01:02.726Z,100797.59
2022-09-25T21:03:33.300Z,100807.34
2022-09-25T21:06:04.531Z,100799.19
2022-09-25T21:08:31.468Z,100792.31
2022-09-25T21:11:02.243Z,100802.69
2022-09-25T21:13:30.131Z,100797.66
2022-09-25T21:16:07.433Z,100796.31
2022-09-25T21:18:35.901Z,100795.56
2022-09-25T21:21:04.054Z,100792.44
2022-09-25T21:23:31.100Z,100795.06
2022-09-25T21:26:05.526Z,100803.72
2022-09-25T21:28:33.004Z,100799.91
2022-09-25T21:31:03.945Z,100793.91
2022-09-25T21:33:30.881Z,100795.34
2022-09-25T21:35:57.923Z,100786.47
2022-09-25T21:38:24.729Z,100792.59
2022-09-25T21:40:55.842Z,100787.94
2022-09-25T21:43:22.901Z,100784.34
2022-09-25T21:45:49.737Z,100783.72
2022-09-25T21:48:16.520Z,100780.47
2022-09-25T21:50:56.815Z,100778.50
2022-09-25T21:53:24.128Z,100778.34
2022-09-25T21:56:00.402Z,100777.69
2022-09-25T21:58:27.483Z,100777.53
2022-09-25T22:01:08.021Z,100776.38
2022-09-25T22:03:35.603Z,100772.03
2022-09-25T22:06:04.142Z,100766.72
2022-09-25T22:08:31.532Z,100767.44
2022-09-25T22:10:59.288Z,100763.75
2022-09-25T22:13:27.179Z,100764.31
2022-09-25T22:16:05.230Z,100764.81
2022-09-25T22:18:33.691Z,100759.41
2022-09-25T22:21:00.591Z,100753.78
2022-09-25T22:23:27.583Z,100746.81
2022-09-25T22:25:54.604Z,100749.69
2022-09-25T22:28:21.590Z,100743.47
2022-09-25T22:30:48.513Z,100743.56
2022-09-25T22:33:15.501Z,100739.34
2022-09-25T22:35:42.264Z,100736.94
2022-09-25T22:38:09.078Z,100735.06
2022-09-25T22:40:37.794Z,100731.53
2022-09-25T22:43:05.270Z,100740.75
2022-09-25T22:45:32.756Z,100742.78
2022-09-25T22:47:59.983Z,100739.09
2022-09-25T22:50:27.407Z,100742.06
2022-09-25T22:52:58.537Z,100737.50
2022-09-25T22:55:26.339Z,100733.50
2022-09-25T22:57:53.143Z,100732.56
2022-09-25T23:00:19.951Z,100733.00
2022-09-25T23:02:47.162Z,100734.59
2022-09-25T23:05:14.009Z,100734.25
2022-09-25T23:07:40.979Z,100735.19
2022-09-25T23:10:08.236Z,100745.22
2022-09-25T23:12:35.008Z,100735.81
2022-09-25T23:15:01.835Z,100738.06
2022-09-25T23:17:29.152Z,100733.34
2022-09-25T23:19:55.955Z,100736.81
2022-09-25T23:22:22.791Z,100735.88
2022-09-25T23:24:49.789Z,100733.72
2022-09-25T23:27:16.610Z,100727.16
2022-09-25T23:29:43.403Z,100730.97
2022-09-25T23:32:10.488Z,100735.66
2022-09-25T23:34:37.295Z,100726.97
2022-09-25T23:37:04.250Z,100726.25
2022-09-25T23:39:31.271Z,100718.47
2022-09-25T23:41:58.044Z,100716.16
2022-09-25T23:44:24.916Z,100717.84
2022-09-25T23:46:51.896Z,100714.47
2022-09-25T23:49:18.699Z,100711.09
2022-09-25T23:51:46.400Z,100718.38
2022-09-25T23:54:13.698Z,100716.81
2022-09-25T23:56:41.242Z,100712.50
2022-09-25T23:59:09.499Z,100718.38
